Skip Navigation Links
NOAA logo - Click to go to the NOAA homepage
NOAA's National Weather Service
Alaska Aviation Weather Unit
  NWS logo - Click to go to the NWS homepage
Left Navbar Graphic     00 AKDT = 08 GMT

   
NOAA is celebrating 200 years of science, service, and stewardship. Visit the NOAA 200th celebration Web site to learn more.
USA.gov is the U.S. Government's official Web portal to all Federal, state and local government Web resources and services.
Facebook
NWS on Facebook

Important Change Regarding the AAWU Web Presence

 

Over the last several months, the AAWU has been working to navigate its webpages to a nationally supported server. Security, as well as other needs, have necessitated the change.  We have been given an extension for the site changeover while we diligently work at addressing feedback received. As of July 14, 2017, aawu.arh.noaa.gov will be discontinued. The new AAWU web address is weather.gov/aawu. It is now live and will run in-parallel with the old site until it is discontinued on July 14, 2017. Please continue to send any feedback or questions regarding the new webpages to nws.ar.aawu.webauthors@noaa.gov.  Thank you for your patience during this time of transition.
AAWU Home :: Display TAF Add Bookmark
TAF PATK 240541Z 2406/2506  36004KT P6SM VCSH SCT050 BKN080
     FM241800 18005KT P6SM -SHRA BKN040 OVC070
     FM250100 19005KT P6SM VCSH SCT040 BKN060=

4450
FTAK31 PANC 240541
TAFAAQ
TAF

METAR PATK 240253Z AUTO 36004KT 10SM OVC100 13/09 A2948 RMK AO2 RAE04 SLP984 P0000 60000 T01280094 57018 TSNO= METAR PATK 240353Z AUTO 00000KT 10SM FEW100 11/09 A2947 RMK AO2 SLP983 T01110094 TSNO= METAR PATK 240453Z AUTO 00000KT 10SM OVC110 11/09 A2947 RMK AO2 SLP982 T01060094 TSNO= METAR PATK 240553Z AUTO 00000KT 10SM OVC085 10/09 A2947 RMK AO2 SLP981 60000 T01000094 10133 20100 56003 TSNO= METAR PATK 240653Z AUTO 00000KT 10SM -RA FEW060 OVC075 10/09 A2947 RMK AO2 RAB31 SLP980 P0000 T01000094 TSNO= METAR PATK 240753Z AUTO 00000KT 10SM BKN080 OVC100 10/09 A2946 RMK AO2 RAE41 SLP977 P0001 T01000094 TSNO=
 Alaska TAF Map

NOAA's National Weather Service
Alaska Aviation Weather Unit
6930 Sand Lake Road
Anchorage, AK 99502-1845
Disclaimer
Credits
Glossary
Privacy Policy
About Us
Career Opportunities
Contact AAWU Internet Services Site last modified: April, 17th 2012